createdAt,value
2022-11-12T00:01:07.872Z,26.67
2022-11-12T00:03:35.255Z,27.08
2022-11-12T00:06:02.312Z,31.85
2022-11-12T00:08:29.773Z,26.98
2022-11-12T00:10:57.162Z,25.00
2022-11-12T00:13:24.248Z,24.05
2022-11-12T00:15:51.383Z,27.63
2022-11-12T00:18:18.670Z,28.23
2022-11-12T00:20:45.796Z,27.02
2022-11-12T00:23:12.985Z,25.90
2022-11-12T00:25:40.426Z,27.20
2022-11-12T00:28:10.638Z,25.70
2022-11-12T00:30:39.609Z,29.20
2022-11-12T00:33:06.996Z,29.85
2022-11-12T00:35:35.126Z,29.90
2022-11-12T00:38:02.378Z,32.80
2022-11-12T00:40:29.791Z,24.90
2022-11-12T00:42:57.193Z,31.08
2022-11-12T00:45:25.227Z,28.70
2022-11-12T00:47:56.937Z,34.08
2022-11-12T00:50:24.670Z,27.33
2022-11-12T00:52:55.013Z,32.00
2022-11-12T00:55:22.362Z,29.60
2022-11-12T00:57:49.505Z,33.70
2022-11-12T01:00:19.443Z,30.70
2022-11-12T01:02:51.036Z,34.63
2022-11-12T01:05:20.180Z,27.40
2022-11-12T01:07:53.072Z,39.85
2022-11-12T01:10:22.982Z,35.15
2022-11-12T01:12:50.077Z,35.90
2022-11-12T01:15:17.480Z,40.47
2022-11-12T01:17:44.579Z,34.67
2022-11-12T01:20:11.821Z,32.85
2022-11-12T01:22:38.950Z,30.92
2022-11-12T01:25:06.593Z,26.80
2022-11-12T01:27:34.405Z,30.67
2022-11-12T01:30:01.518Z,29.85
2022-11-12T01:32:28.702Z,28.08
2022-11-12T01:34:55.821Z,30.33
2022-11-12T01:37:22.853Z,27.37
2022-11-12T01:39:49.892Z,28.25
2022-11-12T01:42:16.922Z,30.83
2022-11-12T01:44:46.270Z,29.33
2022-11-12T01:47:19.008Z,32.45
2022-11-12T01:50:14.260Z,30.17
2022-11-12T01:52:48.278Z,26.50
2022-11-12T01:55:22.231Z,27.23
2022-11-12T01:57:55.544Z,31.40
2022-11-12T02:00:22.677Z,26.60
2022-11-12T02:02:57.594Z,24.17
2022-11-12T02:05:27.122Z,25.77
2022-11-12T02:07:56.083Z,23.47
2022-11-12T02:10:23.711Z,28.47
2022-11-12T02:13:12.298Z,24.93
2022-11-12T02:15:41.049Z,23.52
2022-11-12T02:18:09.091Z,22.80
2022-11-12T02:20:38.353Z,21.00
2022-11-12T02:23:07.535Z,22.05
2022-11-12T02:25:35.624Z,18.65
2022-11-12T02:28:07.353Z,21.43
2022-11-12T02:30:45.152Z,21.67
2022-11-12T02:33:12.243Z,22.27
2022-11-12T02:35:39.303Z,21.50
2022-11-12T02:38:08.390Z,21.15
2022-11-12T02:40:35.705Z,21.53
2022-11-12T02:43:03.439Z,19.80
2022-11-12T02:45:32.125Z,17.50
2022-11-12T02:47:59.195Z,22.37
2022-11-12T02:50:26.279Z,23.85
2022-11-12T02:52:53.508Z,19.67
2022-11-12T02:55:20.802Z,23.77
2022-11-12T02:57:47.852Z,21.83
2022-11-12T03:00:15.164Z,20.33
2022-11-12T03:02:59.043Z,18.77
2022-11-12T03:05:34.441Z,22.50
2022-11-12T03:08:08.871Z,17.90
2022-11-12T03:10:39.624Z,21.33
2022-11-12T03:13:07.073Z,19.37
2022-11-12T03:15:34.225Z,18.27
2022-11-12T03:18:01.745Z,19.57
2022-11-12T03:20:30.092Z,22.25
2022-11-12T03:23:09.128Z,19.43
2022-11-12T03:25:36.890Z,21.67
2022-11-12T03:28:09.421Z,19.60
2022-11-12T03:30:40.382Z,19.60
2022-11-12T03:33:10.886Z,17.63
2022-11-12T03:35:39.209Z,15.93
2022-11-12T03:38:07.201Z,20.02
2022-11-12T03:40:35.076Z,14.82
2022-11-12T03:43:02.105Z,17.02
2022-11-12T03:45:29.229Z,18.30
2022-11-12T03:47:58.468Z,18.57
2022-11-12T03:50:29.208Z,16.70
2022-11-12T03:52:59.912Z,15.43
2022-11-12T03:55:29.567Z,16.27
2022-11-12T03:57:57.834Z,10.70
2022-11-12T04:00:28.043Z,9.60
2022-11-12T04:02:56.097Z,9.43
2022-11-12T04:05:42.179Z,8.40
2022-11-12T04:11:15.160Z,9.67
2022-11-12T04:13:45.626Z,9.55
2022-11-12T04:16:37.721Z,8.68
2022-11-12T04:19:24.849Z,8.23
2022-11-12T04:22:10.837Z,8.17
2022-11-12T04:24:59.578Z,8.55
2022-11-12T04:27:33.015Z,9.65
2022-11-12T04:30:19.495Z,7.07
2022-11-12T04:32:57.010Z,6.95
2022-11-12T04:35:27.799Z,6.93
2022-11-12T04:37:55.293Z,11.18
2022-11-12T04:40:44.826Z,8.43
2022-11-12T04:43:36.073Z,10.93
2022-11-12T04:46:05.268Z,6.50
2022-11-12T04:48:32.706Z,7.85
2022-11-12T04:51:03.064Z,8.32
2022-11-12T04:53:31.153Z,7.07
2022-11-12T04:55:59.348Z,10.03
2022-11-12T04:58:26.790Z,9.07
2022-11-12T05:00:54.223Z,5.57
2022-11-12T05:03:21.425Z,7.30
2022-11-12T05:05:48.536Z,7.47
2022-11-12T05:08:15.716Z,9.13
2022-11-12T05:10:42.828Z,10.70
2022-11-12T05:13:09.842Z,9.20
2022-11-12T05:15:36.902Z,7.18
2022-11-12T05:18:04.321Z,7.70
2022-11-12T05:20:31.370Z,9.48
2022-11-12T05:23:06.728Z,12.23
2022-11-12T05:25:35.968Z,11.13
2022-11-12T05:28:03.287Z,10.30
2022-11-12T05:30:30.324Z,10.07
2022-11-12T05:32:57.481Z,7.32
2022-11-12T05:35:24.690Z,10.48
2022-11-12T05:37:51.737Z,9.07
2022-11-12T05:40:18.821Z,8.93
2022-11-12T05:42:45.931Z,9.43
2022-11-12T05:45:12.944Z,9.20
2022-11-12T05:47:40.045Z,7.20
2022-11-12T05:50:08.103Z,7.23
2022-11-12T05:52:35.274Z,8.53
2022-11-12T05:55:02.303Z,11.43
2022-11-12T05:57:29.366Z,10.55
2022-11-12T05:59:56.452Z,9.23
2022-11-12T06:02:23.711Z,12.80
2022-11-12T06:04:50.841Z,13.53
2022-11-12T06:07:17.964Z,10.70
2022-11-12T06:09:45.145Z,9.73
2022-11-12T06:12:12.206Z,11.13
2022-11-12T06:14:39.331Z,10.60
2022-11-12T06:17:06.371Z,15.80
2022-11-12T06:19:33.435Z,10.63
2022-11-12T06:22:00.542Z,8.53
2022-11-12T06:24:33.847Z,9.17
2022-11-12T06:27:02.369Z,7.93
2022-11-12T06:29:30.289Z,8.77
2022-11-12T06:31:57.356Z,8.33
2022-11-12T06:34:24.562Z,12.23
2022-11-12T06:36:51.592Z,8.30
2022-11-12T06:39:18.715Z,7.80
2022-11-12T06:41:48.671Z,10.55
2022-11-12T06:44:20.904Z,9.87
2022-11-12T06:46:49.275Z,8.02
2022-11-12T06:49:16.345Z,8.63
2022-11-12T06:51:43.691Z,13.60
2022-11-12T06:54:10.793Z,8.13
2022-11-12T06:56:37.840Z,8.47
2022-11-12T06:59:04.890Z,8.38
2022-11-12T07:01:31.942Z,9.25
2022-11-12T07:03:59.930Z,9.82
2022-11-12T07:06:27.043Z,8.82
2022-11-12T07:08:54.213Z,7.43
2022-11-12T07:11:21.971Z,9.48
2022-11-12T07:13:49.072Z,10.00
2022-11-12T07:16:18.852Z,7.85
2022-11-12T07:18:47.819Z,7.43
2022-11-12T07:21:20.578Z,11.27
2022-11-12T07:23:48.275Z,7.32
2022-11-12T07:26:27.670Z,10.63
2022-11-12T07:28:56.734Z,10.77
2022-11-12T07:31:26.578Z,8.27
2022-11-12T07:33:53.714Z,8.52
2022-11-12T07:36:21.725Z,12.02
2022-11-12T07:38:54.125Z,8.00
2022-11-12T07:41:24.836Z,9.73
2022-11-12T07:43:53.988Z,9.70
2022-11-12T07:46:25.501Z,8.57
2022-11-12T07:48:53.779Z,7.95
2022-11-12T07:51:26.979Z,8.00
2022-11-12T07:53:59.587Z,9.55
2022-11-12T07:56:28.332Z,7.40
2022-11-12T07:58:55.468Z,7.38
2022-11-12T08:01:40.703Z,13.35
2022-11-12T08:04:10.698Z,8.23
2022-11-12T08:06:38.261Z,8.70
2022-11-12T08:09:08.537Z,9.73
2022-11-12T08:11:36.325Z,6.15
2022-11-12T08:14:05.181Z,8.98
2022-11-12T08:16:32.330Z,8.02
2022-11-12T08:19:00.200Z,13.93
2022-11-12T08:21:27.371Z,7.80
2022-11-12T08:23:54.455Z,8.02
2022-11-12T08:26:22.008Z,7.35
2022-11-12T08:28:49.262Z,9.57
2022-11-12T08:31:22.912Z,8.32
2022-11-12T08:33:50.417Z,6.70
2022-11-12T08:36:18.411Z,9.82
2022-11-12T08:38:46.033Z,9.15
2022-11-12T08:41:15.010Z,7.13
2022-11-12T08:43:42.602Z,7.40
2022-11-12T08:46:10.507Z,7.55
2022-11-12T08:48:39.872Z,9.32
2022-11-12T08:51:08.282Z,6.63
2022-11-12T08:53:35.476Z,9.02
2022-11-12T08:56:02.670Z,6.47
2022-11-12T08:58:30.186Z,8.88
2022-11-12T09:01:04.138Z,8.15
2022-11-12T09:03:31.200Z,5.28
2022-11-12T09:06:02.061Z,10.52
2022-11-12T09:08:29.535Z,7.63
2022-11-12T09:10:59.231Z,7.03
2022-11-12T09:13:26.546Z,5.93
2022-11-12T09:15:53.750Z,6.05
2022-11-12T09:18:21.363Z,7.05
2022-11-12T09:20:48.408Z,8.73
2022-11-12T09:23:17.791Z,8.43
2022-11-12T09:25:45.101Z,6.20
2022-11-12T09:28:14.763Z,6.03
2022-11-12T09:30:49.117Z,3.97
2022-11-12T09:33:19.366Z,3.80
2022-11-12T09:35:47.863Z,3.25
2022-11-12T09:38:16.011Z,5.50
2022-11-12T09:40:53.639Z,10.65
2022-11-12T09:43:37.383Z,6.13
2022-11-12T09:46:28.873Z,5.00
2022-11-12T09:49:05.382Z,8.70
2022-11-12T09:51:53.944Z,8.07
2022-11-12T09:54:31.617Z,10.27
2022-11-12T09:56:59.203Z,6.35
2022-11-12T09:59:36.035Z,6.25
2022-11-12T10:02:48.554Z,6.68
2022-11-12T10:05:57.065Z,7.28
2022-11-12T10:09:12.090Z,5.57
2022-11-12T10:12:17.334Z,5.85
2022-11-12T10:15:22.447Z,5.90
2022-11-12T10:18:14.850Z,5.75
2022-11-12T10:20:55.766Z,6.15
2022-11-12T10:23:27.733Z,9.70
2022-11-12T10:26:00.717Z,5.75
2022-11-12T10:28:57.897Z,9.88
2022-11-12T10:31:25.021Z,11.38
2022-11-12T10:33:54.623Z,8.80
2022-11-12T10:36:35.937Z,7.10
2022-11-12T10:39:03.067Z,5.72
2022-11-12T10:41:33.952Z,6.78
2022-11-12T10:44:13.413Z,6.43
2022-11-12T10:46:40.504Z,7.63
2022-11-12T10:49:16.983Z,8.13
2022-11-12T10:51:56.898Z,5.15
2022-11-12T10:54:36.235Z,8.82
2022-11-12T10:57:25.379Z,7.53
2022-11-12T11:00:27.977Z,5.70
2022-11-12T11:02:56.176Z,8.55
2022-11-12T11:05:50.314Z,7.15
2022-11-12T11:08:54.218Z,6.85
2022-11-12T11:11:24.917Z,11.75
2022-11-12T11:13:56.317Z,7.18
2022-11-12T11:16:30.038Z,5.85
2022-11-12T11:19:06.555Z,11.05
2022-11-12T11:21:45.489Z,7.53
2022-11-12T11:25:03.170Z,6.97
2022-11-12T11:27:54.838Z,8.00
2022-11-12T11:30:23.118Z,8.15
2022-11-12T11:33:28.954Z,6.07
2022-11-12T11:36:09.903Z,7.75
2022-11-12T11:39:01.326Z,4.82
2022-11-12T11:42:16.106Z,5.30
2022-11-12T11:45:15.361Z,3.22
2022-11-12T11:48:23.550Z,6.13
2022-11-12T11:51:06.004Z,9.30
2022-11-12T11:54:22.842Z,5.65
2022-11-12T11:56:51.922Z,9.38
2022-11-12T11:59:53.996Z,7.93
2022-11-12T12:02:50.755Z,9.95
2022-11-12T12:05:43.066Z,6.70
2022-11-12T12:08:35.723Z,4.15
2022-11-12T12:11:17.851Z,7.07
2022-11-12T12:14:41.845Z,4.22
2022-11-12T12:17:39.064Z,5.40
2022-11-12T12:20:51.233Z,3.95
2022-11-12T12:23:44.359Z,5.03
2022-11-12T12:26:35.748Z,4.38
2022-11-12T12:29:31.458Z,4.35
2022-11-12T12:32:39.676Z,6.65
2022-11-12T12:35:28.789Z,5.78
2022-11-12T12:37:58.042Z,4.45
2022-11-12T12:40:47.920Z,4.80
2022-11-12T12:43:29.512Z,3.55
2022-11-12T12:45:58.411Z,7.28
2022-11-12T12:48:31.605Z,5.45
2022-11-12T12:50:58.882Z,3.95
2022-11-12T12:53:25.838Z,3.67
2022-11-12T12:55:59.448Z,5.82
2022-11-12T12:58:34.130Z,7.20
2022-11-12T13:01:25.179Z,3.57
2022-11-12T13:04:05.073Z,8.32
2022-11-12T13:06:45.175Z,3.67
2022-11-12T13:09:14.979Z,3.90
2022-11-12T13:12:00.598Z,4.30
2022-11-12T13:14:38.593Z,4.47
2022-11-12T13:17:08.465Z,4.13
2022-11-12T13:19:59.151Z,13.98
2022-11-12T13:22:26.121Z,7.05
2022-11-12T13:25:08.395Z,5.75
2022-11-12T13:28:09.829Z,3.88
2022-11-12T13:30:36.774Z,3.30
2022-11-12T13:33:11.534Z,3.47
2022-11-12T13:35:39.935Z,5.18
2022-11-12T13:38:10.486Z,7.38
2022-11-12T13:41:06.969Z,6.00
2022-11-12T13:46:27.705Z,6.10
2022-11-12T13:49:08.980Z,6.30
2022-11-12T13:51:52.070Z,4.55
2022-11-12T13:54:34.500Z,3.60
2022-11-12T13:57:19.757Z,3.80
2022-11-12T14:00:07.494Z,3.35
2022-11-12T14:02:41.613Z,8.90
2022-11-12T14:05:36.258Z,7.70
2022-11-12T14:08:27.958Z,3.83
2022-11-12T14:11:27.192Z,4.50
2022-11-12T14:14:56.753Z,4.57
2022-11-12T14:17:23.755Z,4.03
2022-11-12T14:20:15.603Z,4.38
2022-11-12T14:22:45.459Z,4.80
2022-11-12T14:25:19.906Z,3.50
2022-11-12T14:27:49.994Z,7.68
2022-11-12T14:30:21.887Z,6.55
2022-11-12T14:33:01.269Z,3.65
2022-11-12T14:35:38.316Z,6.45
2022-11-12T14:38:27.952Z,3.13
2022-11-12T14:41:19.453Z,4.78
2022-11-12T14:44:07.460Z,4.20
2022-11-12T14:46:48.557Z,5.25
2022-11-12T14:49:33.832Z,5.05
2022-11-12T14:52:16.596Z,4.07
2022-11-12T14:54:54.946Z,5.82
2022-11-12T14:57:28.954Z,5.63
2022-11-12T14:59:57.396Z,5.72
2022-11-12T15:02:58.896Z,5.80
2022-11-12T15:05:23.469Z,6.63
2022-11-12T15:07:57.702Z,9.13
2022-11-12T15:10:42.374Z,8.73
2022-11-12T15:13:15.433Z,10.68
2022-11-12T15:16:04.441Z,10.82
2022-11-12T15:18:33.680Z,9.75
2022-11-12T15:21:27.009Z,11.23
2022-11-12T15:24:17.668Z,9.95
2022-11-12T15:26:48.348Z,7.60
2022-11-12T15:29:31.712Z,9.25
2022-11-12T15:32:13.705Z,7.32
2022-11-12T15:34:41.060Z,7.40
2022-11-12T15:37:31.607Z,10.32
2022-11-12T15:40:04.035Z,10.82
2022-11-12T15:42:37.655Z,9.40
2022-11-12T15:45:21.654Z,11.52
2022-11-12T15:47:48.941Z,9.30
2022-11-12T15:50:23.870Z,9.65
2022-11-12T15:52:51.239Z,7.78
2022-11-12T15:55:19.040Z,8.50
2022-11-12T15:57:51.160Z,10.80
2022-11-12T16:00:22.055Z,9.35
2022-11-12T16:03:20.665Z,9.82
2022-11-12T16:05:48.669Z,15.10
2022-11-12T16:08:16.079Z,18.42
2022-11-12T16:10:46.318Z,13.95
2022-11-12T16:13:36.144Z,18.58
2022-11-12T16:16:07.294Z,13.32
2022-11-12T16:18:34.403Z,15.82
2022-11-12T16:21:01.622Z,15.88
2022-11-12T16:23:29.235Z,21.50
2022-11-12T16:25:56.504Z,14.65
2022-11-12T16:28:23.560Z,18.38
2022-11-12T16:30:50.964Z,14.50
2022-11-12T16:33:18.052Z,17.10
2022-11-12T16:35:45.224Z,15.40
2022-11-12T16:38:17.609Z,18.13
2022-11-12T16:40:45.794Z,22.35
2022-11-12T16:43:12.899Z,18.00
2022-11-12T16:45:43.068Z,18.17
2022-11-12T16:48:19.632Z,21.85
2022-11-12T16:50:47.610Z,20.00
2022-11-12T16:53:14.970Z,21.73
2022-11-12T16:55:42.238Z,27.23
2022-11-12T16:58:14.555Z,22.40
2022-11-12T17:00:45.714Z,24.20
2022-11-12T17:03:14.466Z,24.15
2022-11-12T17:05:41.835Z,25.10
2022-11-12T17:08:10.880Z,24.35
2022-11-12T17:10:38.631Z,23.73
2022-11-12T17:13:05.709Z,27.58
2022-11-12T17:15:32.812Z,32.33
2022-11-12T17:18:00.139Z,25.52
2022-11-12T17:20:30.616Z,30.70
2022-11-12T17:22:58.916Z,31.05
2022-11-12T17:25:26.068Z,28.63
2022-11-12T17:27:53.173Z,27.98
2022-11-12T17:30:20.257Z,27.75
2022-11-12T17:32:49.198Z,25.63
2022-11-12T17:35:16.877Z,28.90
2022-11-12T17:37:45.403Z,24.40
2022-11-12T17:40:12.768Z,22.75
2022-11-12T17:42:40.340Z,27.35
2022-11-12T17:45:08.342Z,25.75
2022-11-12T17:47:40.475Z,29.70
2022-11-12T17:50:08.977Z,22.13
2022-11-12T17:52:37.609Z,30.60
2022-11-12T17:55:05.610Z,25.38
2022-11-12T17:57:33.530Z,25.10
2022-11-12T18:00:01.296Z,35.08
2022-11-12T18:02:28.663Z,27.85
2022-11-12T18:04:56.898Z,27.83
2022-11-12T18:07:24.341Z,26.73
2022-11-12T18:09:53.543Z,25.63
2022-11-12T18:12:23.951Z,30.40
2022-11-12T18:14:51.367Z,28.80
2022-11-12T18:17:19.121Z,26.80
2022-11-12T18:19:47.766Z,30.08
2022-11-12T18:22:15.803Z,32.47
2022-11-12T18:24:43.569Z,35.75
2022-11-12T18:27:10.964Z,32.10
2022-11-12T18:29:40.570Z,35.55
2022-11-12T18:32:09.077Z,37.60
2022-11-12T18:34:40.939Z,31.55
2022-11-12T18:37:09.058Z,32.40
2022-11-12T18:39:36.775Z,36.42
2022-11-12T18:42:04.953Z,41.22
2022-11-12T18:44:32.449Z,32.20
2022-11-12T18:47:00.398Z,36.25
2022-11-12T18:49:28.472Z,32.25
2022-11-12T18:51:56.109Z,36.20
2022-11-12T18:54:26.009Z,36.28
2022-11-12T18:56:53.801Z,34.90
2022-11-12T18:59:24.247Z,27.77
2022-11-12T19:01:51.765Z,26.52
2022-11-12T19:04:19.251Z,35.95
2022-11-12T19:06:47.173Z,29.70
2022-11-12T19:09:16.153Z,31.65
2022-11-12T19:11:44.672Z,38.78
2022-11-12T19:14:12.333Z,33.67
2022-11-12T19:16:44.930Z,32.05
2022-11-12T19:19:14.015Z,31.15
2022-11-12T19:21:42.046Z,36.40
2022-11-12T19:24:09.995Z,38.95
2022-11-12T19:26:39.601Z,41.17
2022-11-12T19:29:07.329Z,37.30
2022-11-12T19:31:34.626Z,39.92
2022-11-12T19:34:02.699Z,47.65
2022-11-12T19:36:30.430Z,44.92
2022-11-12T19:39:00.164Z,39.13
2022-11-12T19:41:27.762Z,45.47
2022-11-12T19:43:55.951Z,41.53
2022-11-12T19:46:23.453Z,39.67
2022-11-12T19:48:51.894Z,39.03
2022-11-12T19:51:19.480Z,45.40
2022-11-12T19:53:47.540Z,45.63
2022-11-12T19:56:23.203Z,52.03
2022-11-12T19:58:53.692Z,47.92
2022-11-12T20:01:21.626Z,47.75
2022-11-12T20:03:49.184Z,46.58
2022-11-12T20:06:19.847Z,42.58
2022-11-12T20:08:48.112Z,45.55
2022-11-12T20:11:19.024Z,48.75
2022-11-12T20:13:47.128Z,46.38
2022-11-12T20:16:23.788Z,48.25
2022-11-12T20:18:56.406Z,47.08
2022-11-12T20:21:24.929Z,48.55
2022-11-12T20:23:54.029Z,48.58
2022-11-12T20:26:21.290Z,47.65
2022-11-12T20:28:50.174Z,47.65
2022-11-12T20:31:20.997Z,44.40
2022-11-12T20:33:52.361Z,55.30
2022-11-12T20:36:24.073Z,54.42
2022-11-12T20:38:53.494Z,49.40
2022-11-12T20:41:27.044Z,46.35
2022-11-12T20:43:58.113Z,47.47
2022-11-12T20:46:27.176Z,50.80
2022-11-12T20:48:55.922Z,41.10
2022-11-12T20:51:29.875Z,49.10
2022-11-12T20:54:00.742Z,45.47
2022-11-12T20:56:30.612Z,47.28
2022-11-12T20:58:59.489Z,49.85
2022-11-12T21:01:29.955Z,40.40
2022-11-12T21:03:59.003Z,49.22
2022-11-12T21:06:29.046Z,37.70
2022-11-12T21:09:00.221Z,41.05
2022-11-12T21:11:28.519Z,41.25
2022-11-12T21:13:55.950Z,44.20
2022-11-12T21:16:23.575Z,37.58
2022-11-12T21:18:50.848Z,41.17
2022-11-12T21:21:21.257Z,41.25
2022-11-12T21:23:50.682Z,41.70
2022-11-12T21:26:22.081Z,42.58
2022-11-12T21:28:55.292Z,34.38
2022-11-12T21:31:28.766Z,39.03
2022-11-12T21:34:00.365Z,38.58
2022-11-12T21:36:29.228Z,41.60
2022-11-12T21:38:56.759Z,36.65
2022-11-12T21:41:28.510Z,41.80
2022-11-12T21:43:55.652Z,43.45
2022-11-12T21:46:29.625Z,39.75
2022-11-12T21:48:57.964Z,44.42
2022-11-12T21:51:33.140Z,46.60
2022-11-12T21:54:07.113Z,50.47
2022-11-12T21:56:34.615Z,47.83
2022-11-12T21:59:04.183Z,45.25
2022-11-12T22:01:34.297Z,48.53
2022-11-12T22:04:06.108Z,44.30
2022-11-12T22:06:38.084Z,47.00
2022-11-12T22:09:05.675Z,47.53
2022-11-12T22:11:32.991Z,52.13
2022-11-12T22:14:00.217Z,50.65
2022-11-12T22:16:29.648Z,49.05
2022-11-12T22:18:59.162Z,52.75
2022-11-12T22:21:38.375Z,55.38
2022-11-12T22:24:08.845Z,47.83
2022-11-12T22:26:36.057Z,55.03
2022-11-12T22:29:03.981Z,48.85
2022-11-12T22:31:33.578Z,53.13
2022-11-12T22:34:02.543Z,53.45
2022-11-12T22:36:31.536Z,54.97
2022-11-12T22:38:59.014Z,53.90
2022-11-12T22:41:30.158Z,52.15
2022-11-12T22:44:00.675Z,52.20
2022-11-12T22:46:34.811Z,46.20
2022-11-12T22:49:04.175Z,51.47
2022-11-12T22:51:33.464Z,44.95
2022-11-12T22:54:04.820Z,57.50
2022-11-12T22:56:35.399Z,50.95
2022-11-12T22:59:06.028Z,62.58
2022-11-12T23:01:35.689Z,50.42
2022-11-12T23:04:06.657Z,51.78
2022-11-12T23:06:34.085Z,46.13
2022-11-12T23:09:01.891Z,44.08
2022-11-12T23:11:29.245Z,53.22
2022-11-12T23:13:57.037Z,48.22
2022-11-12T23:16:30.730Z,49.45
2022-11-12T23:18:59.130Z,43.90
2022-11-12T23:21:29.749Z,50.92
2022-11-12T23:23:58.200Z,48.03
2022-11-12T23:26:28.799Z,45.22
2022-11-12T23:28:55.854Z,47.80
2022-11-12T23:31:30.040Z,44.72
2022-11-12T23:34:00.368Z,40.03
2022-11-12T23:36:28.439Z,37.38
2022-11-12T23:38:56.917Z,38.22
2022-11-12T23:41:26.608Z,35.30
2022-11-12T23:43:55.690Z,34.38
2022-11-12T23:46:23.380Z,36.10
2022-11-12T23:48:50.819Z,39.17
2022-11-12T23:51:21.321Z,44.20
2022-11-12T23:53:49.168Z,36.55
2022-11-12T23:56:18.703Z,42.45
2022-11-12T23:58:46.481Z,42.30
